Time;durP1;ratioP1;P1;durP2;ratioP2;P2;SDS_P1;SDS_P2;PMS_P1;PMS_P2;Temp;Humidity;BMP_temperature;BMP_pressure;BME280_temperature;BME280_humidity;BME280_pressure;Samples;Min_cycle;Max_cycle;Signal;HPM_P1;HPM_P2
2022/08/24 00:00:39;;;;;;;9.40;6.97;;;;;;;21.02;73.45;101492.50;4936499;29;20035;-89
2022/08/24 00:03:04;;;;;;;8.68;7.38;;;;;;;20.93;73.55;101483.31;4937143;29;20027;-91
2022/08/24 00:05:29;;;;;;;8.00;7.13;;;;;;;20.94;73.98;101481.47;4956381;29;20035;-90
2022/08/24 00:07:55;;;;;;;9.68;7.25;;;;;;;20.97;73.84;101494.75;4955957;29;20058;-91
2022/08/24 00:10:21;;;;;;;7.57;6.78;;;;;;;20.89;74.19;101498.94;4938840;29;20167;-91
2022/08/24 00:12:46;;;;;;;8.85;7.95;;;;;;;20.85;74.46;101494.78;4954177;28;20027;-90
2022/08/24 00:15:13;;;;;;;9.35;8.63;;;;;;;20.83;74.97;101494.06;4955349;29;20046;-91
2022/08/24 00:17:39;;;;;;;10.35;7.70;;;;;;;20.85;74.54;101497.47;4954824;29;20078;-92
2022/08/24 00:20:07;;;;;;;9.25;7.93;;;;;;;20.86;74.66;101501.94;4955015;29;20031;-92
2022/08/24 00:22:33;;;;;;;11.40;8.80;;;;;;;20.84;75.02;101501.19;4952865;28;20058;-91
2022/08/24 00:24:58;;;;;;;11.07;9.15;;;;;;;20.79;74.82;101498.00;4956467;29;20036;-91
2022/08/24 00:27:24;;;;;;;9.63;8.48;;;;;;;20.76;75.11;101503.66;4954042;29;20035;-92
2022/08/24 00:29:50;;;;;;;9.43;8.52;;;;;;;20.73;74.85;101497.66;4942495;29;20034;-91
2022/08/24 00:32:15;;;;;;;10.20;8.23;;;;;;;20.63;75.24;101493.00;4957539;29;20027;-89
2022/08/24 00:34:41;;;;;;;8.98;8.07;;;;;;;20.61;75.24;101499.56;4939706;29;20031;-92
2022/08/24 00:37:06;;;;;;;8.93;8.10;;;;;;;20.55;75.96;101498.19;4944189;29;20076;-90
2022/08/24 00:39:31;;;;;;;9.75;8.77;;;;;;;20.52;75.97;101493.03;4964531;29;20046;-91
2022/08/24 00:41:56;;;;;;;10.23;9.32;;;;;;;20.53;76.26;101497.47;4943839;29;20031;-91
2022/08/24 00:44:22;;;;;;;10.23;9.23;;;;;;;20.48;76.49;101505.09;4944798;29;20031;-92
2022/08/24 00:46:50;;;;;;;11.02;8.60;;;;;;;20.38;77.19;101504.09;4945224;29;20023;-92
2022/08/24 00:49:24;;;;;;;9.52;8.50;;;;;;;20.30;77.58;101509.28;4969892;28;20039;-91
2022/08/24 00:52:03;;;;;;;10.98;9.98;;;;;;;20.27;77.45;101502.25;4965610;28;20023;-90
2022/08/24 00:54:32;;;;;;;12.10;10.90;;;;;;;20.16;77.93;101494.19;4947964;29;20031;-90
2022/08/24 00:57:03;;;;;;;12.35;11.07;;;;;;;20.26;77.65;101511.38;4962941;29;20034;-90
2022/08/24 00:59:33;;;;;;;11.80;10.68;;;;;;;20.17;78.00;101500.44;4960899;29;20034;-90
2022/08/24 01:02:04;;;;;;;13.23;11.38;;;;;;;20.12;78.10;101504.38;4958503;28;20202;-91
2022/08/24 01:04:40;;;;;;;12.38;11.07;;;;;;;20.18;77.39;101512.97;4964674;29;20039;-90
2022/08/24 01:07:05;;;;;;;11.88;10.68;;;;;;;20.12;78.32;101514.34;4959237;29;20124;-90
2022/08/24 01:09:30;;;;;;;12.70;11.38;;;;;;;20.10;78.14;101500.06;4936606;29;20031;-90
2022/08/24 01:11:56;;;;;;;12.60;11.18;;;;;;;20.06;78.07;101504.84;4956860;28;20484;-91
2022/08/24 01:14:22;;;;;;;14.38;11.15;;;;;;;20.09;78.69;101506.47;4965499;29;20137;-90
2022/08/24 01:19:42;;;;;;;17.15;11.38;;;;;;;20.02;77.93;101502.53;4962420;28;20041;-91
2022/08/24 01:22:18;;;;;;;14.43;12.85;;;;;;;20.03;79.02;101512.38;4967929;28;20034;-89
2022/08/24 01:24:43;;;;;;;16.52;13.20;;;;;;;19.94;79.23;101510.38;4973492;28;20392;-91
2022/08/24 01:27:11;;;;;;;15.77;14.10;;;;;;;19.87;79.65;101508.19;4971911;28;20049;-91
2022/08/24 01:29:37;;;;;;;16.08;14.38;;;;;;;19.78;79.91;101503.53;4971938;28;20306;-90
2022/08/24 01:32:03;;;;;;;15.85;14.30;;;;;;;19.82;80.11;101521.22;4954289;29;20031;-90
2022/08/24 01:34:29;;;;;;;16.25;14.60;;;;;;;19.80;80.05;101517.75;4956564;28;20008;-91
2022/08/24 01:36:55;;;;;;;16.23;14.60;;;;;;;19.77;80.75;101515.31;4967382;28;20111;-91
2022/08/24 01:39:31;;;;;;;17.08;15.25;;;;;;;19.67;80.92;101516.16;4965599;28;20143;-91
2022/08/24 01:41:58;;;;;;;16.75;15.02;;;;;;;19.64;81.01;101519.94;4963006;29;20130;-91
2022/08/24 01:44:28;;;;;;;20.73;16.15;;;;;;;19.65;80.99;101513.56;4954706;28;20524;-91
2022/08/24 01:46:55;;;;;;;17.48;15.68;;;;;;;19.64;81.17;101510.00;4953684;29;20062;-91
2022/08/24 01:49:23;;;;;;;21.67;17.92;;;;;;;19.63;81.27;101510.97;4953868;29;20031;-91
2022/08/24 01:51:49;;;;;;;24.45;19.75;;;;;;;19.61;82.43;101509.41;4952293;29;20035;-91
2022/08/24 01:54:14;;;;;;;21.67;19.13;;;;;;;19.49;82.20;101494.13;4951647;29;20027;-91
2022/08/24 01:56:40;;;;;;;21.83;19.70;;;;;;;19.60;82.77;101503.06;4948418;29;20090;-92
2022/08/24 01:59:06;;;;;;;22.38;20.08;;;;;;;19.52;82.67;101502.84;4952595;29;20090;-92
2022/08/24 02:01:36;;;;;;;22.60;20.25;;;;;;;19.54;82.25;101513.50;4953421;28;20087;-90
2022/08/24 02:04:04;;;;;;;22.30;19.85;;;;;;;19.55;82.49;101516.09;4956936;28;20042;-90
2022/08/24 02:06:29;;;;;;;23.75;20.75;;;;;;;19.51;82.87;101505.66;4956037;29;20733;-91
2022/08/24 02:08:54;;;;;;;21.98;19.67;;;;;;;19.49;82.59;101510.31;4957156;28;20079;-92
2022/08/24 02:11:20;;;;;;;23.08;20.70;;;;;;;19.42;83.40;101513.47;4949051;29;20028;-91
2022/08/24 02:13:46;;;;;;;22.95;20.45;;;;;;;19.38;83.76;101508.44;4935929;29;20544;-92
2022/08/24 02:16:13;;;;;;;24.27;19.50;;;;;;;19.35;83.09;101497.88;4939370;28;20121;-91
2022/08/24 02:18:39;;;;;;;22.50;20.10;;;;;;;19.38;82.87;101505.75;4957068;29;20118;-91
2022/08/24 02:21:07;;;;;;;23.50;20.90;;;;;;;19.33;83.42;101495.31;4956314;29;20030;-91
2022/08/24 02:23:33;;;;;;;27.55;22.15;;;;;;;19.38;83.38;101508.44;4957113;29;20067;-91
2022/08/24 02:25:58;;;;;;;23.38;20.98;;;;;;;19.40;83.75;101510.06;4948504;29;20063;-91
2022/08/24 02:28:23;;;;;;;24.92;22.33;;;;;;;19.41;83.63;101511.75;4954625;29;20158;-91
2022/08/24 02:30:49;;;;;;;26.65;21.08;;;;;;;19.31;83.19;101502.69;4954989;29;20497;-91
2022/08/24 02:33:14;;;;;;;25.58;22.77;;;;;;;19.31;83.31;101502.69;4955158;28;20464;-92
2022/08/24 02:35:41;;;;;;;24.90;21.75;;;;;;;19.32;83.27;101512.47;4952106;28;20130;-91
2022/08/24 02:38:06;;;;;;;25.40;22.63;;;;;;;19.32;83.90;101522.44;4950623;29;20389;-92
2022/08/24 02:40:32;;;;;;;26.08;23.27;;;;;;;19.29;83.36;101515.41;4938663;29;20034;-92
2022/08/24 02:42:57;;;;;;;26.40;22.42;;;;;;;19.31;83.76;101512.59;4958073;29;20047;-93
2022/08/24 02:45:23;;;;;;;25.75;22.98;;;;;;;19.28;84.05;101513.69;4955515;29;20074;-92
2022/08/24 02:47:49;;;;;;;28.10;24.13;;;;;;;19.24;84.12;101508.66;4954821;29;20849;-92
2022/08/24 02:50:16;;;;;;;24.58;21.95;;;;;;;19.24;83.76;101523.00;4956427;29;20035;-91
2022/08/24 02:52:42;;;;;;;26.42;22.48;;;;;;;19.12;83.73;101515.84;4956737;28;20039;-92
2022/08/24 02:55:12;;;;;;;28.55;23.15;;;;;;;19.04;84.12;101511.03;4958057;28;20107;-90
2022/08/24 02:57:38;;;;;;;25.90;22.48;;;;;;;19.09;84.22;101521.47;4955702;29;20118;-90
2022/08/24 03:00:07;;;;;;;24.50;21.90;;;;;;;18.98;84.35;101508.81;4956610;28;20062;-90
2022/08/24 03:02:32;;;;;;;23.40;21.00;;;;;;;18.99;83.54;101517.75;4956510;29;20122;-91
2022/08/24 03:04:57;;;;;;;25.35;21.00;;;;;;;18.95;83.88;101514.44;4955173;29;20071;-92
2022/08/24 03:07:23;;;;;;;20.90;18.67;;;;;;;18.98;84.66;101516.00;4956238;29;20603;-91
2022/08/24 03:09:48;;;;;;;21.40;19.17;;;;;;;18.95;84.70;101513.56;4955438;29;20102;-90
2022/08/24 03:12:14;;;;;;;21.38;19.10;;;;;;;18.92;84.85;101518.19;4956017;28;20038;-91
2022/08/24 03:14:39;;;;;;;22.30;19.00;;;;;;;18.91;84.48;101515.63;4938748;29;20031;-91
2022/08/24 03:17:04;;;;;;;22.58;19.38;;;;;;;18.90;84.25;101514.78;4957070;29;20035;-91
2022/08/24 03:19:30;;;;;;;22.55;19.35;;;;;;;18.83;84.79;101512.66;4952576;28;20027;-92
2022/08/24 03:21:56;;;;;;;23.52;20.52;;;;;;;18.74;84.65;101502.56;4954114;28;20416;-92
2022/08/24 03:24:22;;;;;;;23.08;20.60;;;;;;;18.78;84.88;101521.09;4942814;29;20035;-91
2022/08/24 03:26:47;;;;;;;23.17;20.77;;;;;;;18.74;84.73;101514.22;4953816;29;20024;-92
2022/08/24 03:29:14;;;;;;;22.60;20.17;;;;;;;18.66;85.07;101513.88;4939477;29;20020;-92
2022/08/24 03:31:39;;;;;;;24.23;19.98;;;;;;;18.68;84.97;101509.22;4955161;29;20035;-90
2022/08/24 03:34:04;;;;;;;28.08;24.25;;;;;;;18.71;85.74;101513.56;4957795;28;20027;-91
2022/08/24 03:36:30;;;;;;;23.85;21.45;;;;;;;18.68;85.21;101514.59;4957472;29;20073;-91
2022/08/24 03:38:55;;;;;;;25.15;22.48;;;;;;;18.68;85.55;101514.59;4956334;28;20033;-90
2022/08/24 03:41:21;;;;;;;27.08;22.52;;;;;;;18.61;85.17;101500.75;4955496;29;20085;-91
2022/08/24 03:43:47;;;;;;;25.27;22.55;;;;;;;18.62;85.46;101507.00;4938668;29;20027;-90
2022/08/24 03:46:22;;;;;;;28.00;23.17;;;;;;;18.62;85.77;101505.16;4939169;29;20023;-90
2022/08/24 03:48:48;;;;;;;27.08;22.80;;;;;;;18.59;85.17;101505.38;4939092;29;20162;-90
2022/08/24 03:51:17;;;;;;;25.98;23.17;;;;;;;18.57;85.50;101506.47;4953013;29;20477;-92
2022/08/24 03:53:42;;;;;;;28.20;24.70;;;;;;;18.48;85.66;101496.38;4956582;29;20123;-93
2022/08/24 03:56:08;;;;;;;28.23;23.77;;;;;;;18.50;85.70;101510.59;4955951;29;20409;-91
2022/08/24 03:58:36;;;;;;;24.70;22.10;;;;;;;18.51;85.31;101502.38;4957589;28;20051;-90
2022/08/24 04:01:03;;;;;;;28.48;24.63;;;;;;;18.45;86.15;101493.91;4936939;29;20090;-92
2022/08/24 04:03:28;;;;;;;26.27;23.27;;;;;;;18.36;86.04;101492.75;4954402;29;20118;-94
2022/08/24 04:05:53;;;;;;;30.27;26.98;;;;;;;18.27;86.84;101501.50;4954822;29;20963;-93
2022/08/24 04:08:19;;;;;;;31.05;27.15;;;;;;;18.30;87.39;101507.50;4940379;29;20025;-92
2022/08/24 04:10:46;;;;;;;37.45;31.73;;;;;;;18.17;88.17;101501.28;4955657;28;20090;-93
2022/08/24 04:13:11;;;;;;;39.65;33.67;;;;;;;18.22;88.82;101511.75;4952298;28;20067;-92
2022/08/24 04:15:41;;;;;;;40.45;33.25;;;;;;;18.25;88.65;101514.22;4954685;29;20035;-92
2022/08/24 04:18:07;;;;;;;37.42;33.35;;;;;;;18.27;88.33;101514.97;4955721;29;20473;-92
2022/08/24 04:20:37;;;;;;;37.67;32.47;;;;;;;18.30;88.02;101514.75;4955722;28;20058;-92
2022/08/24 04:23:03;;;;;;;39.10;31.95;;;;;;;18.26;88.19;101513.25;4955554;29;20031;-91
2022/08/24 04:25:28;;;;;;;35.17;30.42;;;;;;;18.30;87.82;101517.44;4940175;29;20047;-91
2022/08/24 04:27:54;;;;;;;36.95;30.67;;;;;;;18.23;87.55;101514.34;4941182;29;20050;-91
2022/08/24 04:30:19;;;;;;;35.72;30.35;;;;;;;18.21;87.53;101510.03;4970930;29;20095;-91
2022/08/24 04:32:44;;;;;;;31.88;27.90;;;;;;;18.30;87.67;101522.81;4970229;29;20034;-91
2022/08/24 04:35:09;;;;;;;34.28;29.67;;;;;;;18.31;87.73;101525.44;4966043;28;20043;-92
2022/08/24 04:37:35;;;;;;;28.25;25.10;;;;;;;18.27;86.34;101525.75;4967407;28;20062;-92
2022/08/24 04:40:00;;;;;;;31.65;26.75;;;;;;;18.27;86.79;101523.94;4965259;29;20050;-91
2022/08/24 04:42:25;;;;;;;31.92;27.65;;;;;;;18.19;86.62;101517.38;4939647;29;20039;-91
2022/08/24 04:44:51;;;;;;;33.35;27.95;;;;;;;18.23;86.86;101527.81;4956084;29;20038;-92
2022/08/24 04:47:16;;;;;;;37.58;29.45;;;;;;;18.19;86.86;101520.91;4956379;28;20031;-92
2022/08/24 04:49:41;;;;;;;32.78;27.98;;;;;;;18.22;86.91;101538.69;4938057;29;20066;-90
2022/08/24 04:52:07;;;;;;;36.85;31.85;;;;;;;18.24;87.99;101528.66;4957534;28;20086;-91
2022/08/24 04:54:32;;;;;;;35.20;29.90;;;;;;;18.23;87.64;101537.72;4956279;29;20075;-91
2022/08/24 04:56:58;;;;;;;33.45;28.90;;;;;;;18.24;87.76;101537.63;4940609;29;20027;-91
2022/08/24 04:59:23;;;;;;;31.83;27.75;;;;;;;18.22;87.47;101538.69;4939533;29;20114;-91
2022/08/24 05:01:48;;;;;;;32.00;26.60;;;;;;;18.25;87.48;101544.72;4957482;29;20035;-93
2022/08/24 05:04:14;;;;;;;31.85;26.35;;;;;;;18.27;87.56;101547.31;4937661;29;20024;-91
2022/08/24 05:06:40;;;;;;;29.98;25.67;;;;;;;18.26;87.79;101546.44;4957215;29;20465;-91
2022/08/24 05:09:06;;;;;;;29.20;25.98;;;;;;;18.29;87.84;101548.91;4958362;28;20032;-91
2022/08/24 05:11:31;;;;;;;30.60;25.23;;;;;;;18.23;88.10;101541.28;4954933;29;20038;-90
2022/08/24 05:13:58;;;;;;;33.15;27.27;;;;;;;18.24;87.91;101539.44;4954603;29;20384;-90
2022/08/24 05:16:24;;;;;;;33.85;26.73;;;;;;;18.29;87.82;101546.22;4955024;29;20031;-91
2022/08/24 05:18:50;;;;;;;30.70;26.27;;;;;;;18.29;87.44;101546.22;4953582;28;20042;-91
2022/08/24 05:21:18;;;;;;;31.10;25.35;;;;;;;18.28;87.86;101544.50;4952217;29;20027;-92
2022/08/24 05:23:44;;;;;;;28.35;25.17;;;;;;;18.30;87.89;101545.25;4956101;29;20079;-90
2022/08/24 05:26:21;;;;;;;30.10;25.27;;;;;;;18.39;87.39;101555.38;4956488;28;20075;-96
2022/08/24 05:28:46;;;;;;;30.65;26.33;;;;;;;18.39;87.25;101549.09;4957517;29;20139;-95
2022/08/24 05:31:21;;;;;;;29.00;25.08;;;;;;;18.37;87.11;101551.06;4939330;29;20059;-89
2022/08/24 05:33:48;;;;;;;31.75;25.75;;;;;;;18.38;87.50;101555.47;4946860;29;20024;-92
2022/08/24 05:36:21;;;;;;;32.22;28.73;;;;;;;18.41;87.96;101550.72;4961816;28;20043;-94
2022/08/24 05:38:48;;;;;;;34.70;28.90;;;;;;;18.38;87.66;101553.63;4966048;28;20045;-95
2022/08/24 05:41:15;;;;;;;35.85;31.35;;;;;;;18.41;88.52;101556.13;4955726;29;20035;-95
2022/08/24 05:43:40;;;;;;;40.80;33.97;;;;;;;18.49;88.99;101560.94;4959628;29;20027;-95
2022/08/24 05:46:05;;;;;;;44.45;36.15;;;;;;;18.59;89.89;101563.81;4958922;28;20133;-94
2022/08/24 05:48:31;;;;;;;45.10;37.70;;;;;;;18.73;90.28;101557.44;4953510;28;20016;-93
2022/08/24 05:50:57;;;;;;;49.22;40.17;;;;;;;18.91;89.71;101561.50;4940633;29;20031;-95
2022/08/24 05:53:23;;;;;;;48.63;37.63;;;;;;;19.06;89.10;101554.97;4954679;29;20037;-96
2022/08/24 05:55:49;;;;;;;47.78;38.13;;;;;;;19.27;88.59;101560.56;4962468;29;20091;-93
2022/08/24 05:58:15;;;;;;;46.70;38.05;;;;;;;19.52;87.25;101554.16;4957029;29;20042;-92
2022/08/24 06:00:44;;;;;;;45.90;37.97;;;;;;;19.73;86.04;101551.66;4938477;29;20370;-94
2022/08/24 06:03:09;;;;;;;45.33;37.88;;;;;;;19.94;85.88;101554.50;4941844;28;20046;-96
2022/08/24 06:05:39;;;;;;;44.97;38.72;;;;;;;20.10;85.47;101556.81;4956591;28;20397;-93
2022/08/24 06:08:04;;;;;;;47.80;40.13;;;;;;;20.25;85.18;101552.91;4957806;29;20035;-96
2022/08/24 06:10:29;;;;;;;52.70;43.70;;;;;;;20.46;85.09;101562.97;4957369;29;20062;-95
2022/08/24 06:12:55;;;;;;;53.63;43.45;;;;;;;20.45;84.56;101563.97;4960698;29;20031;-95
2022/08/24 06:15:21;;;;;;;50.78;41.70;;;;;;;20.54;84.36;101563.25;4960590;29;20053;-94
2022/08/24 06:17:46;;;;;;;43.53;38.92;;;;;;;20.70;83.47;101579.94;4961369;29;20040;-95
2022/08/24 06:20:12;;;;;;;46.28;39.53;;;;;;;20.81;82.80;101581.75;4964286;28;20055;-94
2022/08/24 06:22:37;;;;;;;43.28;36.63;;;;;;;20.89;82.86;101573.84;4961952;29;20035;-94
2022/08/24 06:27:47;;;;;;;41.45;36.17;;;;;;;21.27;81.48;101584.16;4958451;28;20082;-96
2022/08/24 06:30:13;;;;;;;40.33;36.13;;;;;;;21.48;80.07;101591.50;4957667;28;20188;-91
2022/08/24 06:32:42;;;;;;;40.55;36.03;;;;;;;21.67;79.12;101588.09;4956720;28;20035;-94
2022/08/24 06:35:08;;;;;;;41.63;37.13;;;;;;;21.85;79.23;101589.19;4955795;28;20019;-95
2022/08/24 06:37:33;;;;;;;39.92;35.53;;;;;;;21.95;78.20;101597.41;4956364;29;20027;-94
2022/08/24 06:39:58;;;;;;;41.78;34.50;;;;;;;22.16;77.54;101594.72;4954293;29;20087;-93
2022/08/24 06:42:25;;;;;;;42.38;35.35;;;;;;;22.30;76.61;101594.34;4948421;29;20036;-93
2022/08/24 06:44:51;;;;;;;41.55;34.55;;;;;;;22.44;76.16;101595.81;4950649;28;20442;-94
2022/08/24 06:47:17;;;;;;;39.53;33.75;;;;;;;22.53;75.18;101589.56;4937866;29;20027;-92
2022/08/24 06:49:42;;;;;;;38.33;32.67;;;;;;;22.64;74.26;101592.19;4956065;29;20047;-92
2022/08/24 06:52:10;;;;;;;36.42;32.45;;;;;;;22.67;73.36;101591.91;4955012;29;20038;-96
2022/08/24 06:54:36;;;;;;;36.70;31.88;;;;;;;22.84;73.62;101598.53;4958098;29;20036;-93
2022/08/24 06:57:02;;;;;;;36.35;31.60;;;;;;;22.98;73.89;101592.72;4961916;29;20023;-93
2022/08/24 06:59:28;;;;;;;37.30;30.60;;;;;;;23.11;71.64;101590.56;4940412;29;20058;-91
2022/08/24 07:01:55;;;;;;;32.35;28.90;;;;;;;23.26;70.96;101593.75;4956509;29;20027;-93
2022/08/24 07:04:22;;;;;;;35.75;31.77;;;;;;;23.46;72.72;101583.75;4952927;29;20092;-92
2022/08/24 07:06:48;;;;;;;35.95;31.20;;;;;;;23.81;69.66;101604.88;4957549;28;20034;-91
2022/08/24 07:09:13;;;;;;;34.30;29.38;;;;;;;24.09;68.54;101600.41;4950806;29;20023;-91
2022/08/24 07:11:39;;;;;;;30.45;26.75;;;;;;;24.24;66.47;101606.19;4936973;29;20035;-91
2022/08/24 07:14:05;;;;;;;31.88;27.52;;;;;;;24.46;66.84;101605.03;4956898;29;20039;-93
2022/08/24 07:16:31;;;;;;;29.20;25.80;;;;;;;24.81;65.47;101597.97;4947351;28;20031;-96
2022/08/24 07:18:56;;;;;;;28.40;25.40;;;;;;;24.94;63.72;101598.44;4960651;29;20444;-95
2022/08/24 07:21:22;;;;;;;47.60;40.65;;;;;;;25.25;64.16;101598.13;4959213;29;20015;-95
2022/08/24 07:23:49;;;;;;;29.98;26.08;;;;;;;25.56;63.49;101604.03;4952664;28;20031;-94
2022/08/24 07:26:21;;;;;;;25.42;22.80;;;;;;;26.00;64.13;101602.19;4971206;28;20026;-96
2022/08/24 07:28:47;;;;;;;26.25;23.38;;;;;;;26.44;62.56;101599.38;4969801;28;20035;-94
2022/08/24 07:31:13;;;;;;;24.60;21.95;;;;;;;26.89;57.46;101602.78;4969663;29;20031;-95
2022/08/24 07:33:39;;;;;;;24.50;20.67;;;;;;;27.26;56.05;101596.94;4973444;29;20038;-95
2022/08/24 07:36:04;;;;;;;23.40;19.73;;;;;;;27.64;55.51;101606.34;4974482;28;20047;-95
2022/08/24 07:38:30;;;;;;;22.63;20.08;;;;;;;28.15;52.86;101608.88;4972705;28;20079;-96
2022/08/24 07:40:57;;;;;;;27.08;24.30;;;;;;;28.40;52.55;101609.69;5054230;23;20173;-96
2022/08/24 07:43:26;;;;;;;27.75;21.40;;;;;;;28.84;50.32;101606.41;5352628;23;20094;-96
2022/08/24 07:48:30;;;;;;;35.10;28.30;;;;;;;29.41;52.20;101582.25;4693704;23;20055;-95
2022/08/24 07:50:57;;;;;;;26.00;19.77;;;;;;;29.97;47.63;101592.88;5296453;23;20110;-96
2022/08/24 07:53:24;;;;;;;20.58;17.40;;;;;;;30.35;45.65;101593.72;4951630;28;20402;-94
2022/08/24 07:55:55;;;;;;;19.63;16.60;;;;;;;30.70;45.91;101597.56;4967222;28;20054;-95
2022/08/24 08:03:32;;;;;;;17.58;15.20;;;;;;;31.61;41.52;101583.34;5595152;23;20082;-96
2022/08/24 08:06:04;;;;;;;17.42;13.90;;;;;;;31.85;42.13;101582.06;5656836;23;20031;-94
2022/08/24 08:19:18;;;;;;;13.05;10.73;;;;;;;32.81;37.36;101610.59;5370963;23;20051;-96
2022/08/24 08:27:10;;;;;;;14.63;9.45;;;;;;;33.74;35.74;101615.53;5334229;23;20050;-96
2022/08/24 08:29:41;;;;;;;12.93;8.90;;;;;;;34.15;36.59;101604.22;5448846;23;20021;-90
2022/08/24 08:45:25;;;;;;;6.25;4.95;;;;;;;36.58;33.77;101603.94;5674550;23;20043;-96
2022/08/24 09:06:34;;;;;;;7.18;4.20;;;;;;;35.29;33.35;101613.81;5567586;23;20086;-96
2022/08/24 09:17:40;;;;;;;9.05;7.97;;;;;;;34.55;33.28;101609.69;5464669;23;20114;-96
2022/08/24 09:20:22;;;;;;;6.25;4.85;;;;;;;35.74;32.11;101631.16;4970314;28;20047;-96
2022/08/24 09:23:13;;;;;;;6.65;3.95;;;;;;;36.85;30.24;101632.16;4964419;28;20062;-92
2022/08/24 09:26:19;;;;;;;8.63;4.50;;;;;;;37.99;29.95;101623.84;4966991;28;20133;-95
2022/08/24 09:29:14;;;;;;;6.20;4.18;;;;;;;38.02;28.73;101615.88;4987068;28;20027;-91
2022/08/24 09:31:59;;;;;;;7.13;4.25;;;;;;;37.51;29.00;101638.75;4964521;28;20126;-93
2022/08/24 09:34:43;;;;;;;7.47;3.95;;;;;;;38.03;28.28;101637.00;4983071;28;20065;-94
2022/08/24 09:37:11;;;;;;;3.65;3.28;;;;;;;39.35;25.76;101639.03;4971281;28;20046;-94
2022/08/24 09:42:23;;;;;;;3.13;2.53;;;;;;;41.04;24.04;101644.38;5312545;23;20078;-96
2022/08/24 09:45:16;;;;;;;4.30;2.42;;;;;;;41.47;23.57;101649.06;5486059;23;20067;-96
2022/08/24 09:50:34;;;;;;;2.75;2.25;;;;;;;41.78;22.58;101647.34;5068307;23;20046;-96
2022/08/24 09:56:00;;;;;;;2.80;2.40;;;;;;;41.17;24.98;101643.97;4966113;28;20082;-96
2022/08/24 10:04:53;;;;;;;4.93;2.50;;;;;;;43.61;20.97;101640.09;5374104;23;20043;-95
2022/08/24 10:07:40;;;;;;;4.28;2.63;;;;;;;43.69;19.68;101639.53;5061984;23;20054;-96
2022/08/24 10:15:22;;;;;;;3.78;2.40;;;;;;;44.07;19.75;101631.66;5852780;23;20058;-96
2022/08/24 10:18:09;;;;;;;3.58;2.15;;;;;;;45.32;20.18;101624.06;5309505;23;20009;-96
2022/08/24 10:20:48;;;;;;;2.45;2.08;;;;;;;45.72;18.90;101626.53;4971606;28;20038;-94
2022/08/24 10:23:37;;;;;;;3.17;2.50;;;;;;;46.05;19.22;101624.00;4957698;28;20038;-96
2022/08/24 10:26:17;;;;;;;3.50;2.42;;;;;;;45.88;18.07;101612.38;4962327;29;20085;-96
2022/08/24 10:29:04;;;;;;;3.80;2.50;;;;;;;45.70;18.13;101622.38;5485364;23;20040;-95
2022/08/24 10:57:41;;;;;;;5.20;2.63;;;;;;;40.79;22.41;101586.28;5990943;23;20516;-96
2022/08/24 11:08:03;;;;;;;12.88;10.90;;;;;;;36.51;28.90;101592.06;5052498;23;20058;-95
2022/08/24 11:10:35;;;;;;;4.30;3.70;;;;;;;35.80;27.94;101549.94;4960916;29;20031;-92
2022/08/24 11:13:16;;;;;;;2.97;2.70;;;;;;;38.77;26.20;101586.38;5202986;23;20221;-96
2022/08/24 11:16:00;;;;;;;4.32;2.40;;;;;;;40.93;22.36;101554.09;5002204;28;20035;-96
2022/08/24 11:18:44;;;;;;;2.40;2.20;;;;;;;42.84;20.24;101588.66;4972670;28;20019;-96
2022/08/24 11:21:13;;;;;;;3.65;2.35;;;;;;;44.26;19.80;101571.00;5349063;22;21530;-89
2022/08/24 11:23:49;;;;;;;2.50;2.30;;;;;;;44.61;18.23;101546.72;4994716;28;20058;-96
2022/08/24 11:26:21;;;;;;;2.63;2.10;;;;;;;45.03;18.23;101557.44;4969196;28;20035;-94
2022/08/24 11:28:52;;;;;;;2.45;2.03;;;;;;;44.03;18.71;101566.03;4979036;28;20033;-92
2022/08/24 11:31:38;;;;;;;3.05;1.80;;;;;;;43.24;20.01;101577.56;4983659;28;20019;-92
2022/08/24 11:34:17;;;;;;;3.00;1.90;;;;;;;42.04;18.88;101544.09;4981725;28;20027;-95
2022/08/24 11:36:43;;;;;;;3.15;1.80;;;;;;;41.51;20.07;101576.69;4971487;28;20049;-94
2022/08/24 11:39:30;;;;;;;2.70;1.38;;;;;;;42.09;20.87;101568.44;4973853;28;20027;-93
2022/08/24 11:42:10;;;;;;;3.08;1.80;;;;;;;43.72;17.65;101566.03;4972782;28;20302;-91
2022/08/24 11:44:58;;;;;;;3.45;1.88;;;;;;;45.44;17.62;101571.13;4966961;28;20027;-92
2022/08/24 11:47:34;;;;;;;3.22;1.58;;;;;;;44.73;17.80;101539.63;5285778;23;20284;-96
2022/08/24 11:50:28;;;;;;;1.88;1.70;;;;;;;43.20;19.30;101565.22;4950399;28;20032;-96
2022/08/24 11:53:09;;;;;;;1.80;1.23;;;;;;;40.84;21.19;101564.00;4939649;29;20044;-95
2022/08/24 11:55:50;;;;;;;4.20;1.77;;;;;;;38.85;22.77;101560.97;4932887;29;20490;-96
2022/08/24 11:58:31;;;;;;;2.67;1.73;;;;;;;37.51;24.42;101558.22;4942813;28;20045;-95
2022/08/24 12:01:17;;;;;;;5.30;1.92;;;;;;;36.36;25.92;101560.00;4941609;29;20086;-95
2022/08/24 12:03:50;;;;;;;4.00;1.60;;;;;;;35.64;27.23;101558.84;4943057;29;20051;-94
2022/08/24 12:06:38;;;;;;;3.47;1.60;;;;;;;35.33;27.85;101557.78;4951879;29;20023;-96
2022/08/24 12:09:17;;;;;;;2.95;1.63;;;;;;;34.98;27.53;101553.78;4922798;29;20044;-94
2022/08/24 12:12:02;;;;;;;3.58;1.80;;;;;;;34.59;28.94;101564.81;4941888;28;20028;-95
2022/08/24 12:14:41;;;;;;;2.45;1.48;;;;;;;34.43;29.70;101560.56;4939544;29;20111;-94
2022/08/24 12:17:18;;;;;;;4.18;1.90;;;;;;;34.35;29.31;101558.06;4943237;29;20046;-93
2022/08/24 12:19:52;;;;;;;2.95;1.60;;;;;;;34.58;29.33;101552.06;4935755;29;20036;-95
2022/08/24 12:22:20;;;;;;;2.45;1.85;;;;;;;35.10;28.68;101552.84;4941264;29;20031;-95
2022/08/24 12:24:52;;;;;;;4.18;1.75;;;;;;;35.71;28.11;101556.00;4945855;29;20012;-95
2022/08/24 12:27:28;;;;;;;3.30;1.50;;;;;;;38.69;24.83;101551.44;4942679;29;20039;-96
2022/08/24 12:30:08;;;;;;;3.40;1.85;;;;;;;41.80;21.80;101549.22;4948012;29;20032;-96
2022/08/24 12:32:45;;;;;;;4.25;1.60;;;;;;;44.27;19.19;101544.59;4947098;29;20035;-96
2022/08/24 12:35:27;;;;;;;2.42;1.70;;;;;;;45.92;18.09;101549.59;4945134;29;20040;-95
2022/08/24 12:38:01;;;;;;;2.25;1.70;;;;;;;46.25;16.49;101541.34;4951702;29;20038;-96
2022/08/24 12:40:32;;;;;;;2.85;1.70;;;;;;;46.40;16.06;101543.94;4955404;29;20035;-96
2022/08/24 12:43:02;;;;;;;3.78;1.50;;;;;;;46.09;16.40;101539.81;5040076;23;20043;-94
2022/08/24 12:45:28;;;;;;;2.17;1.48;;;;;;;45.68;16.31;101543.06;4992471;28;20035;-96
2022/08/24 12:51:14;;;;;;;4.60;3.13;;;;;;;45.04;17.13;101536.63;4990749;28;20035;-96
2022/08/24 12:56:43;;;;;;;3.95;2.17;;;;;;;46.04;16.82;101539.91;5116048;23;20084;-95
2022/08/24 12:59:28;;;;;;;2.90;1.65;;;;;;;46.28;16.33;101515.41;5019318;28;20039;-96
2022/08/24 13:02:05;;;;;;;3.28;1.73;;;;;;;45.89;16.17;101509.97;4990499;28;20034;-94
2022/08/24 13:04:36;;;;;;;2.78;1.55;;;;;;;46.06;15.75;101501.84;4988566;28;20037;-96
2022/08/24 13:07:30;;;;;;;4.57;1.55;;;;;;;46.41;15.67;101525.91;5011794;28;20321;-96
2022/08/24 13:09:55;;;;;;;2.60;1.48;;;;;;;45.66;15.62;101525.69;4997740;28;20042;-96
2022/08/24 13:12:42;;;;;;;3.90;1.60;;;;;;;46.15;16.40;101532.97;5236566;23;20118;-96
2022/08/24 13:15:29;;;;;;;1.92;1.42;;;;;;;46.05;16.25;101531.16;5019078;23;20377;-96
2022/08/24 13:17:56;;;;;;;3.28;1.70;;;;;;;46.17;15.85;101519.47;5043149;23;20040;-95
2022/08/24 13:20:33;;;;;;;2.10;1.25;;;;;;;46.47;16.35;101528.66;4972546;28;20436;-96
2022/08/24 13:22:58;;;;;;;4.00;1.50;;;;;;;46.78;14.82;101523.41;4966811;28;20030;-95
2022/08/24 13:25:40;;;;;;;4.03;1.80;;;;;;;46.50;15.16;101516.78;4970485;28;20039;-96
2022/08/24 13:28:10;;;;;;;3.28;1.45;;;;;;;46.64;15.71;101518.56;4981666;28;20033;-95
2022/08/24 13:31:09;;;;;;;2.70;1.38;;;;;;;45.41;16.61;101518.31;4972883;28;20022;-94
2022/08/24 13:33:34;;;;;;;2.45;1.50;;;;;;;44.98;16.33;101520.91;4952946;28;20043;-89
2022/08/24 13:36:32;;;;;;;3.10;1.70;;;;;;;44.54;17.16;101518.09;4969516;28;20054;-93